»·PEaware :: AAL1780 KPHX-KAUS

AAL1780 :: KPHX-KAUS

FLIGHT INFORMATION

Flight Status: Arrived
Operator:
American Airlines
More flights by this operator :: More flights under this callsign
Pilot: Henderson P. (1210)
Aircraft: AIRBUS A319
(A319)
More flights by this aircraft type
Origin: KPHX Phoenix Sky Harbor Intl
United States
Destination: KAUS Austin Bergstrom Intl
United States
More flights between these airports :: More routes between these airports
Route: ECLPS1 PHASE ELP DILLO LAIKS2
File this flight plan on PilotEdge
Remarks:
Altitude:
(Current/Filed)
37,000ft
Speed:
(Current/Filed)
446kts
Departed: 07-Nov-18 12:34 PM
Arrived: 07-Nov-18 02:15 PM
Distance/Time
Traveled:
756nm/1:40
Distance/Time
To Go:
Arrived

Flight Plot

Page will automatically refresh every two minutes.

Flight plan parsing failed; only flown route is shown


Map Options




Map Legend


Flown Route
Filed Route
Departure Airport
Arrival Airport
Navaid (VOR, NDB)
Fix

Horizontal Profiles

Position Reports

Time Latitude Longitude Heading Altitude Ground
Speed
07-Nov-18 11:57 33.438000 -111.999842 109 1149ft 0kts
07-Nov-18 11:58 33.438000 -111.999842 109 1149ft 0kts
07-Nov-18 11:59 33.438000 -111.999842 109 1149ft 0kts
07-Nov-18 12:00 33.438000 -111.999842 109 1149ft 0kts
07-Nov-18 12:01 33.438000 -111.999842 109 1149ft 0kts
07-Nov-18 12:02 33.438000 -111.999842 109 1149ft 0kts
07-Nov-18 12:03 33.438000 -111.999842 109 1149ft 0kts
07-Nov-18 12:04 33.438000 -111.999842 109 1149ft 0kts
07-Nov-18 12:05 33.438000 -111.999842 109 1149ft 0kts
07-Nov-18 12:06 33.438000 -111.999842 109 1149ft 0kts
07-Nov-18 12:07 33.438000 -111.999842 109 1149ft 0kts
07-Nov-18 12:08 33.438000 -111.999842 109 1149ft 0kts
07-Nov-18 12:09 33.438000 -111.999842 109 1149ft 0kts
07-Nov-18 12:10 33.438000 -111.999842 109 1149ft 0kts
07-Nov-18 12:11 33.438000 -111.999842 109 1149ft 0kts
07-Nov-18 12:12 33.438000 -111.999842 109 1149ft 0kts
07-Nov-18 12:13 33.438000 -111.999842 109 1149ft 0kts
07-Nov-18 12:14 33.438000 -111.999842 109 1149ft 0kts
07-Nov-18 12:15 33.438000 -111.999842 109 1149ft 0kts
07-Nov-18 12:16 33.438000 -111.999842 109 1149ft 0kts
07-Nov-18 12:17 33.438000 -111.999842 109 1149ft 0kts
07-Nov-18 12:18 33.438000 -111.999842 109 1149ft 0kts
07-Nov-18 12:19 33.438000 -111.999842 109 1149ft 0kts
07-Nov-18 12:20 33.438000 -111.999842 109 1149ft 0kts
07-Nov-18 12:21 33.438000 -111.999842 109 1149ft 0kts
07-Nov-18 12:22 33.438000 -111.999842 109 1149ft 0kts
07-Nov-18 12:23 33.438000 -111.999842 109 1149ft 0kts
07-Nov-18 12:24 33.438000 -111.999842 109 1149ft 0kts
07-Nov-18 12:25 33.438000 -111.999842 109 1149ft 0kts
07-Nov-18 12:26 33.438050 -112.000046 92 1149ft 2kts
07-Nov-18 12:27 33.437815 -112.000328 0 1149ft 0kts
07-Nov-18 12:28 33.437815 -112.000328 0 1149ft 0kts
07-Nov-18 12:29 33.437815 -112.000328 0 1149ft 0kts
07-Nov-18 12:30 33.438411 -112.000322 0 1149ft 2kts
07-Nov-18 12:31 33.439718 -112.001312 272 1149ft 8kts
07-Nov-18 12:32 33.439679 -112.005825 272 1149ft 17kts
07-Nov-18 12:33 33.439724 -112.012094 269 1149ft 20kts
07-Nov-18 12:34 33.439708 -112.019165 271 1149ft 22kts
07-Nov-18 12:35 33.439726 -112.026600 270 1149ft 15kts
07-Nov-18 12:36 33.439813 -112.029629 326 1149ft 4kts
07-Nov-18 12:37 33.440849 -112.021214 89 1149ft 119kts
07-Nov-18 12:38 33.440187 -111.963762 93 2965ft 193kts
07-Nov-18 12:39 33.435599 -111.888054 95 4940ft 259kts
07-Nov-18 12:40 33.392726 -111.816383 139 7723ft 283kts
07-Nov-18 12:41 33.335276 -111.750954 137 7984ft 285kts
07-Nov-18 12:42 33.277776 -111.685507 137 9110ft 291kts
07-Nov-18 12:43 33.215978 -111.615353 138 11477ft 334kts
07-Nov-18 12:44 33.142901 -111.532444 139 13447ft 382kts
07-Nov-18 12:45 33.065651 -111.441747 129 16027ft 403kts
07-Nov-18 12:46 33.003077 -111.327261 125 18317ft 422kts
07-Nov-18 12:47 32.937262 -111.207995 125 20371ft 439kts
07-Nov-18 12:48 32.869341 -111.084437 125 22219ft 455kts
07-Nov-18 12:49 32.798660 -110.956681 125 23942ft 469kts
07-Nov-18 12:50 32.725963 -110.825768 125 25542ft 481kts
07-Nov-18 12:51 32.651802 -110.690556 119 27077ft 496kts
07-Nov-18 12:52 32.612002 -110.531944 104 28568ft 509kts
07-Nov-18 12:53 32.575438 -110.368088 105 30020ft 520kts
07-Nov-18 12:54 32.538356 -110.200575 105 31414ft 526kts
07-Nov-18 12:55 32.500601 -110.033380 106 32917ft 525kts
07-Nov-18 12:56 32.462869 -109.866632 107 34117ft 525kts
07-Nov-18 12:57 32.429974 -109.697957 100 35173ft 526kts
07-Nov-18 12:58 32.408884 -109.526469 100 36017ft 527kts
07-Nov-18 12:59 32.386672 -109.355470 99 36702ft 528kts
07-Nov-18 13:00 32.368293 -109.212299 100 37103ft 530kts
07-Nov-18 13:01 32.335703 -109.014426 104 37113ft 525kts
07-Nov-18 13:02 32.310365 -108.873554 104 37122ft 525kts
07-Nov-18 13:03 32.274738 -108.676021 104 37115ft 527kts
07-Nov-18 13:04 32.249075 -108.534767 104 37169ft 527kts
07-Nov-18 13:05 32.212765 -108.336781 104 37180ft 529kts
07-Nov-18 13:06 32.186618 -108.195432 104 37183ft 530kts
07-Nov-18 13:07 32.149590 -107.996982 104 37163ft 530kts
07-Nov-18 13:08 32.123048 -107.855362 104 37161ft 530kts
07-Nov-18 13:09 32.085518 -107.657159 105 37153ft 530kts
07-Nov-18 13:10 32.058556 -107.516097 105 37151ft 530kts
07-Nov-18 13:11 32.025995 -107.346450 105 37149ft 530kts
07-Nov-18 13:12 31.993229 -107.176963 105 37145ft 529kts
07-Nov-18 13:13 31.960234 -107.008372 105 37105ft 529kts
07-Nov-18 13:14 31.927102 -106.839251 105 37077ft 529kts
07-Nov-18 13:15 31.893690 -106.670645 105 37037ft 531kts
07-Nov-18 13:16 31.859962 -106.501624 106 37073ft 531kts
07-Nov-18 13:17 31.825952 -106.332567 106 37103ft 532kts
07-Nov-18 13:18 31.802676 -106.160579 98 37113ft 534kts
07-Nov-18 13:19 31.784318 -105.987280 99 37118ft 534kts
07-Nov-18 13:20 31.765498 -105.813858 98 37120ft 534kts
07-Nov-18 13:21 31.746424 -105.641035 99 37124ft 533kts
07-Nov-18 13:22 31.727212 -105.468579 99 37124ft 533kts
07-Nov-18 13:23 31.707673 -105.295580 99 37129ft 533kts
07-Nov-18 13:24 31.688022 -105.123361 99 37135ft 533kts
07-Nov-18 13:25 31.668092 -104.950849 99 37135ft 533kts
07-Nov-18 13:26 31.647930 -104.778742 99 37135ft 533kts
07-Nov-18 13:27 31.627485 -104.606369 99 37124ft 533kts
07-Nov-18 13:28 31.606864 -104.434420 99 37122ft 533kts
07-Nov-18 13:29 31.586026 -104.262311 99 37120ft 533kts
07-Nov-18 13:30 31.564905 -104.090350 99 37116ft 533kts
07-Nov-18 13:31 31.543595 -103.918318 100 37122ft 533kts
07-Nov-18 13:32 31.522111 -103.746615 100 37131ft 532kts
07-Nov-18 13:33 31.500266 -103.575156 100 37133ft 533kts
07-Nov-18 13:34 31.478339 -103.403815 100 37146ft 532kts
07-Nov-18 13:35 31.456056 -103.232067 100 37145ft 531kts
07-Nov-18 13:36 31.433752 -103.061516 100 37145ft 531kts
07-Nov-18 13:37 31.411107 -102.890625 100 37144ft 530kts
07-Nov-18 13:38 31.388325 -102.720170 100 37143ft 530kts
07-Nov-18 13:39 31.365289 -102.549799 100 37150ft 529kts
07-Nov-18 13:40 31.342062 -102.379825 100 37153ft 529kts
07-Nov-18 13:41 31.318672 -102.210057 100 37150ft 529kts
07-Nov-18 13:42 31.295015 -102.040412 101 37142ft 529kts
07-Nov-18 13:43 31.271139 -101.870401 101 37154ft 528kts
07-Nov-18 13:44 31.247001 -101.701004 101 37146ft 528kts
07-Nov-18 13:45 31.222797 -101.531822 101 37124ft 528kts
07-Nov-18 13:46 31.198316 -101.363187 101 37103ft 527kts
07-Nov-18 13:47 31.173694 -101.194571 101 37061ft 527kts
07-Nov-18 13:48 31.148775 -101.025578 101 37017ft 526kts
07-Nov-18 13:49 31.123772 -100.857966 101 37013ft 524kts
07-Nov-18 13:50 31.098716 -100.691074 101 37017ft 518kts
07-Nov-18 13:51 31.073315 -100.524306 101 37053ft 527kts
07-Nov-18 13:52 31.047672 -100.356404 102 37056ft 526kts
07-Nov-18 13:53 31.021733 -100.188472 102 37083ft 526kts
07-Nov-18 13:54 30.995559 -100.020696 102 37078ft 525kts
07-Nov-18 13:55 30.969289 -99.853592 102 36904ft 521kts
07-Nov-18 13:56 30.942722 -99.686294 102 35333ft 527kts
07-Nov-18 13:57 30.915746 -99.517373 102 32296ft 534kts
07-Nov-18 13:58 30.888438 -99.348348 102 29522ft 527kts
07-Nov-18 13:59 30.861637 -99.183569 102 26790ft 507kts
07-Nov-18 14:00 30.835838 -99.026383 102 24195ft 483kts
07-Nov-18 14:01 30.811186 -98.877097 102 21791ft 459kts
07-Nov-18 14:02 30.790561 -98.734477 98 19819ft 431kts
07-Nov-18 14:03 30.776817 -98.599833 98 18291ft 416kts
07-Nov-18 14:04 30.762813 -98.466783 98 16286ft 412kts
07-Nov-18 14:05 30.725419 -98.345622 118 14377ft 390kts
07-Nov-18 14:06 30.680586 -98.233141 116 12329ft 375kts
07-Nov-18 14:07 30.637924 -98.125259 116 10327ft 356kts
07-Nov-18 14:08 30.599743 -98.029109 116 9614ft 306kts
07-Nov-18 14:09 30.563906 -97.939521 119 7772ft 301kts
07-Nov-18 14:10 30.512325 -97.866327 132 6006ft 288kts
07-Nov-18 14:11 30.462196 -97.797820 131 5023ft 256kts
07-Nov-18 14:12 30.417619 -97.744514 153 4970ft 219kts
07-Nov-18 14:13 30.369244 -97.715376 152 4087ft 200kts
07-Nov-18 14:14 30.320659 -97.685281 157 2905ft 194kts
07-Nov-18 14:15 30.277663 -97.681084 178 2108ft 132kts
07-Nov-18 14:16 30.241829 -97.680138 178 1191ft 121kts
07-Nov-18 14:17 30.207069 -97.679146 182 558ft 109kts
07-Nov-18 14:18 30.198884 -97.675315 89 556ft 18kts
07-Nov-18 14:19 30.199238 -97.669934 23 556ft 12kts
07-Nov-18 14:20 30.201339 -97.669151 23 556ft 3kts
07-Nov-18 14:21 30.201692 -97.668987 22 556ft 0kts
07-Nov-18 14:22 30.201692 -97.668987 22 556ft 0kts
07-Nov-18 14:23 30.201692 -97.668987 22 556ft 0kts
07-Nov-18 14:24 30.201692 -97.668987 22 556ft 0kts
07-Nov-18 14:25 30.201692 -97.668987 22 556ft 0kts
07-Nov-18 14:26 30.201692 -97.668987 22 556ft 0kts
07-Nov-18 14:27 30.201692 -97.668987 22 556ft 0kts
07-Nov-18 14:28 30.201692 -97.668987 22 556ft 0kts
07-Nov-18 14:29 30.201692 -97.668987 22 556ft 0kts
07-Nov-18 14:30 30.201692 -97.668987 22 556ft 0kts
07-Nov-18 14:31 30.201692 -97.668987 22 556ft 0kts
07-Nov-18 14:32 30.201692 -97.668987 22 556ft 0kts

Navigation Log

Ident Type
Flight plan parsing failed, navigation log unavailable